Time;durP1;ratioP1;P1;durP2;ratioP2;P2;SDS_P1;SDS_P2;PMS_P1;PMS_P2;Temp;Humidity;BMP_temperature;BMP_pressure;BME280_temperature;BME280_humidity;BME280_pressure;Samples;Min_cycle;Max_cycle;Signal;HPM_P1;HPM_P2
2022/02/02 00:01:40;;;;;;;3.15;1.52;;;;;;;4.03;100.00;95621.97;5110829;28;24869;-74
2022/02/02 00:04:10;;;;;;;4.45;1.40;;;;;;;4.02;100.00;95616.00;5110620;28;24980;-74
2022/02/02 00:06:42;;;;;;;2.70;1.10;;;;;;;4.09;100.00;95616.59;5110705;28;24528;-74
2022/02/02 00:09:14;;;;;;;1.20;0.82;;;;;;;4.24;100.00;95610.03;5111003;28;24550;-74
2022/02/02 00:12:08;;;;;;;1.60;0.80;;;;;;;4.32;100.00;95623.38;5110855;28;24432;-74
2022/02/02 00:14:46;;;;;;;1.33;0.80;;;;;;;4.25;100.00;95602.28;5110525;28;24522;-74
2022/02/02 00:17:16;;;;;;;1.98;0.85;;;;;;;4.25;100.00;95604.00;5110614;28;24421;-73
2022/02/02 00:19:52;;;;;;;1.15;0.80;;;;;;;4.18;100.00;95593.16;5110755;28;24516;-73
2022/02/02 00:22:24;;;;;;;1.42;1.00;;;;;;;4.17;100.00;95609.44;5110614;28;24451;-73
2022/02/02 00:25:07;;;;;;;3.33;1.67;;;;;;;4.29;100.00;95614.06;5110460;28;24444;-73
2022/02/02 00:27:35;;;;;;;2.72;1.60;;;;;;;4.26;100.00;95615.91;5110476;28;24491;-74
2022/02/02 00:30:04;;;;;;;5.38;2.40;;;;;;;4.36;100.00;95614.66;5110682;28;24521;-73
2022/02/02 00:32:51;;;;;;;7.35;2.80;;;;;;;4.36;100.00;95622.34;5110466;28;24490;-74
2022/02/02 00:35:22;;;;;;;9.60;2.90;;;;;;;4.46;100.00;95618.50;5110331;28;24444;-74
2022/02/02 00:37:48;;;;;;;9.70;2.63;;;;;;;4.48;100.00;95618.44;5114329;28;24436;-73
2022/02/02 00:40:16;;;;;;;3.92;1.60;;;;;;;4.50;100.00;95627.75;5114409;28;24451;-74
2022/02/02 00:42:45;;;;;;;6.95;1.85;;;;;;;4.44;100.00;95661.31;5114123;28;24421;-74
2022/02/02 00:45:11;;;;;;;3.00;1.40;;;;;;;4.14;100.00;95642.88;5114239;28;24764;-74
2022/02/02 00:47:39;;;;;;;2.60;1.40;;;;;;;4.04;100.00;95618.50;5113781;28;24445;-74
2022/02/02 00:50:07;;;;;;;3.67;1.65;;;;;;;4.00;100.00;95594.72;5114387;28;24426;-74
2022/02/02 00:52:34;;;;;;;3.10;1.10;;;;;;;4.02;100.00;95585.25;5114022;28;25047;-74
2022/02/02 00:55:00;;;;;;;2.67;0.85;;;;;;;4.05;100.00;95592.84;5113841;28;24946;-74
2022/02/02 00:57:29;;;;;;;1.90;1.00;;;;;;;3.99;100.00;95611.00;5113973;28;24482;-74
2022/02/02 00:59:55;;;;;;;3.67;1.30;;;;;;;4.10;100.00;95618.28;5114124;28;24425;-74
2022/02/02 01:02:22;;;;;;;2.63;1.30;;;;;;;4.06;100.00;95612.44;5113715;28;24428;-74
2022/02/02 01:04:48;;;;;;;2.63;1.15;;;;;;;4.11;100.00;95599.44;5113951;28;24429;-74
2022/02/02 01:07:21;;;;;;;2.20;1.20;;;;;;;4.08;100.00;95587.59;5113452;28;24417;-74
2022/02/02 01:09:52;;;;;;;2.60;1.30;;;;;;;4.13;100.00;95582.28;5113759;28;24437;-74
2022/02/02 01:12:42;;;;;;;2.38;1.13;;;;;;;4.11;100.00;95572.06;5113737;28;24429;-74
2022/02/02 01:20:50;;;;;;;1.00;0.60;;;;;;;4.01;100.00;95604.09;5113695;28;24409;-74
2022/02/02 01:28:45;;;;;;;4.15;1.10;;;;;;;4.11;100.00;95628.44;5113442;28;24771;-74
2022/02/02 01:31:15;;;;;;;2.28;1.33;;;;;;;4.05;100.00;95638.13;5113187;28;24992;-74
2022/02/02 01:33:42;;;;;;;9.57;2.30;;;;;;;4.25;100.00;95627.91;5113243;28;24449;-74
2022/02/02 01:36:09;;;;;;;16.08;3.33;;;;;;;4.22;100.00;95622.91;5113319;28;24791;-74
2022/02/02 01:38:36;;;;;;;6.37;2.90;;;;;;;4.32;100.00;95628.50;5113271;28;24772;-74
2022/02/02 01:41:07;;;;;;;8.40;3.38;;;;;;;4.35;100.00;95633.50;5113349;28;24524;-74
2022/02/02 01:43:38;;;;;;;11.70;3.40;;;;;;;4.41;100.00;95627.28;5113003;28;24521;-74
2022/02/02 01:46:08;;;;;;;11.98;3.45;;;;;;;4.39;100.00;95623.97;5112974;28;24425;-74
2022/02/02 01:48:42;;;;;;;12.50;3.83;;;;;;;4.54;100.00;95639.53;5112753;28;24848;-74
2022/02/02 01:51:29;;;;;;;7.65;3.70;;;;;;;4.60;100.00;95643.59;5113259;28;24520;-74
2022/02/02 01:54:00;;;;;;;10.73;3.72;;;;;;;4.58;100.00;95640.25;5113149;28;24429;-74
2022/02/02 01:56:27;;;;;;;10.65;3.90;;;;;;;4.59;100.00;95631.66;5112714;28;24538;-74
2022/02/02 02:01:37;;;;;;;9.05;3.90;;;;;;;4.57;100.00;95642.00;5112284;28;25068;-74
2022/02/02 02:04:05;;;;;;;9.23;4.07;;;;;;;4.69;100.00;95632.94;5112835;28;24470;-74
2022/02/02 02:06:31;;;;;;;10.40;4.20;;;;;;;4.66;100.00;95617.69;5112299;28;24425;-74
2022/02/02 02:08:57;;;;;;;10.07;4.18;;;;;;;4.65;100.00;95638.28;5112432;28;25004;-74
2022/02/02 02:11:24;;;;;;;10.93;4.40;;;;;;;4.67;100.00;95641.59;5112408;28;24958;-74
2022/02/02 02:16:31;;;;;;;12.25;5.00;;;;;;;4.73;100.00;95649.88;5037911;28;24466;-76
2022/02/02 02:18:59;;;;;;;15.15;4.75;;;;;;;4.69;100.00;95652.63;5071947;28;24419;-76
2022/02/02 02:21:27;;;;;;;11.95;4.35;;;;;;;4.76;100.00;95646.34;5072231;28;24431;-76
2022/02/02 02:23:54;;;;;;;15.18;4.82;;;;;;;4.75;100.00;95632.69;5071499;28;24768;-76
2022/02/02 02:26:24;;;;;;;12.50;4.25;;;;;;;4.71;100.00;95640.56;5071742;28;24419;-76
2022/02/02 02:29:05;;;;;;;11.90;4.17;;;;;;;4.68;100.00;95638.16;5071566;28;24982;-76
2022/02/02 02:31:40;;;;;;;10.85;3.88;;;;;;;4.74;100.00;95648.13;5071825;28;24420;-76
2022/02/02 02:34:23;;;;;;;17.27;4.50;;;;;;;4.74;100.00;95648.13;5071315;28;24426;-76
2022/02/02 02:39:47;;;;;;;9.43;4.07;;;;;;;4.71;100.00;95661.09;5036846;28;24512;-76
2022/02/02 02:55:57;;;;;;;19.25;3.22;;;;;;;4.49;100.00;95656.03;5071132;28;24461;-76
2022/02/02 02:58:44;;;;;;;10.47;3.83;;;;;;;4.46;100.00;95667.25;5070805;28;24614;-76
2022/02/02 03:01:20;;;;;;;12.82;4.32;;;;;;;4.44;100.00;95656.19;5071268;28;24827;-76
2022/02/02 03:31:16;;;;;;;11.13;3.40;;;;;;;4.39;100.00;95678.63;5040711;28;24464;-75
2022/02/02 03:51:03;;;;;;;8.00;3.00;;;;;;;4.31;100.00;95680.69;5074455;28;24390;-76
2022/02/02 03:56:33;;;;;;;10.48;3.35;;;;;;;4.34;100.00;95688.25;4988515;28;24428;-76
2022/02/02 03:59:23;;;;;;;8.93;2.97;;;;;;;4.31;100.00;95675.56;4988905;28;24424;-76
2022/02/02 04:02:09;;;;;;;11.82;3.55;;;;;;;4.41;100.00;95683.69;5041931;28;24446;-76
2022/02/02 04:05:06;;;;;;;10.70;3.20;;;;;;;4.46;100.00;95692.06;5070517;28;24512;-75
2022/02/02 04:07:45;;;;;;;9.82;3.42;;;;;;;4.44;100.00;95693.84;5070972;28;24423;-76
2022/02/02 04:10:11;;;;;;;9.35;3.75;;;;;;;4.50;100.00;95688.47;5072394;28;24534;-77
2022/02/02 04:12:48;;;;;;;11.02;3.70;;;;;;;4.47;100.00;95697.09;5074923;28;24431;-76
2022/02/02 04:37:39;;;;;;;9.98;3.15;;;;;;;4.48;100.00;95731.28;5074580;28;25013;-76
2022/02/02 04:54:15;;;;;;;7.95;2.88;;;;;;;4.18;100.00;95733.31;5073401;28;24430;-77
2022/02/02 04:57:14;;;;;;;11.68;3.25;;;;;;;4.13;100.00;95728.38;5073346;28;24422;-76
2022/02/02 04:59:45;;;;;;;7.22;3.20;;;;;;;4.13;100.00;95741.19;5073213;28;24415;-77
2022/02/02 05:07:52;;;;;;;15.65;3.50;;;;;;;4.09;100.00;95722.53;5052219;28;24465;-77
2022/02/02 05:10:28;;;;;;;12.75;4.07;;;;;;;4.11;100.00;95715.59;5072998;28;24457;-77
2022/02/02 05:15:56;;;;;;;15.93;3.60;;;;;;;4.17;100.00;95703.44;5073066;28;24417;-76
2022/02/02 05:18:48;;;;;;;13.93;3.70;;;;;;;4.08;100.00;95725.97;5073266;28;24480;-76
2022/02/02 05:21:45;;;;;;;11.95;3.60;;;;;;;4.03;100.00;95733.00;5072307;28;24437;-76
2022/02/02 05:49:27;;;;;;;12.10;4.00;;;;;;;4.12;100.00;95770.28;5072543;28;24469;-76
2022/02/02 05:51:54;;;;;;;12.70;4.07;;;;;;;4.17;100.00;95788.88;5072235;28;24427;-76
2022/02/02 05:54:21;;;;;;;12.30;3.92;;;;;;;4.18;100.00;95787.97;5072689;28;24426;-76
2022/02/02 05:56:50;;;;;;;11.13;3.70;;;;;;;4.22;100.00;95792.09;5071992;28;24429;-76
2022/02/02 05:59:19;;;;;;;12.95;4.13;;;;;;;4.28;100.00;95793.59;5072417;28;24414;-76
2022/02/02 06:01:50;;;;;;;17.05;4.30;;;;;;;4.20;100.00;95799.00;5072234;28;24419;-77
2022/02/02 06:04:22;;;;;;;12.73;3.40;;;;;;;4.20;100.00;95793.88;5072494;28;24422;-76
2022/02/02 06:06:49;;;;;;;12.77;3.97;;;;;;;4.26;100.00;95793.63;5071979;28;24414;-76
2022/02/02 06:09:15;;;;;;;8.00;3.37;;;;;;;4.33;100.00;95784.81;5072165;28;24439;-77
2022/02/02 06:11:43;;;;;;;19.13;4.47;;;;;;;4.31;100.00;95780.66;5071657;28;24429;-76
2022/02/02 06:14:12;;;;;;;18.83;4.50;;;;;;;4.35;100.00;95774.53;5071684;28;25214;-77
2022/02/02 06:16:42;;;;;;;12.50;3.87;;;;;;;4.39;100.00;95782.94;5071504;28;24950;-73
2022/02/02 06:19:08;;;;;;;13.57;3.85;;;;;;;4.36;100.00;95779.59;5090668;28;24422;-73
2022/02/02 06:21:36;;;;;;;14.70;3.85;;;;;;;4.33;100.00;95789.94;5091713;28;24414;-73
2022/02/02 06:24:08;;;;;;;18.30;4.80;;;;;;;4.34;100.00;95796.78;5091680;28;24421;-74
2022/02/02 06:26:37;;;;;;;29.02;4.72;;;;;;;4.44;100.00;95807.50;5092827;28;24432;-74
2022/02/02 06:29:05;;;;;;;14.30;4.60;;;;;;;4.39;100.00;95800.88;5092752;28;24449;-73
2022/02/02 06:31:35;;;;;;;14.60;4.50;;;;;;;4.44;100.00;95804.94;5093660;28;24422;-75
2022/02/02 06:34:03;;;;;;;14.40;4.00;;;;;;;4.39;100.00;95811.97;5093093;28;24469;-74
2022/02/02 06:36:31;;;;;;;13.70;4.85;;;;;;;4.36;100.00;95804.41;5094732;28;24430;-75
2022/02/02 06:38:58;;;;;;;13.68;4.45;;;;;;;4.41;100.00;95820.44;5092772;28;24418;-76
2022/02/02 06:41:27;;;;;;;13.02;3.88;;;;;;;4.33;100.00;95809.63;5092205;28;24418;-74
2022/02/02 06:43:54;;;;;;;13.63;3.70;;;;;;;4.24;100.00;95794.59;5093819;28;24438;-74
2022/02/02 06:46:23;;;;;;;15.00;3.92;;;;;;;4.24;100.00;95810.81;5092676;28;24426;-75
2022/02/02 06:48:51;;;;;;;10.68;3.55;;;;;;;4.19;100.00;95810.16;5094257;28;24514;-75
2022/02/02 06:51:26;;;;;;;10.52;3.10;;;;;;;4.17;100.00;95805.97;5093359;28;24422;-75
2022/02/02 06:54:00;;;;;;;9.65;3.53;;;;;;;4.16;100.00;95823.09;5093502;28;24461;-75
2022/02/02 06:56:39;;;;;;;13.18;3.25;;;;;;;4.18;100.00;95830.72;5092378;28;24521;-76
2022/02/02 06:59:20;;;;;;;9.45;2.90;;;;;;;4.15;100.00;95823.13;5092337;28;24971;-75
2022/02/02 07:01:59;;;;;;;8.57;3.25;;;;;;;4.18;100.00;95818.72;5079334;28;24956;-74
2022/02/02 07:05:03;;;;;;;12.82;4.65;;;;;;;4.16;100.00;95846.16;5071714;28;24500;-75
2022/02/02 07:07:41;;;;;;;8.88;3.28;;;;;;;4.17;100.00;95841.88;5078359;28;24492;-75
2022/02/02 07:10:18;;;;;;;11.80;3.95;;;;;;;4.16;100.00;95848.72;5081527;28;24488;-75
2022/02/02 07:12:55;;;;;;;14.55;3.95;;;;;;;4.19;100.00;95847.75;5091598;28;24442;-75
2022/02/02 07:15:28;;;;;;;11.93;4.63;;;;;;;4.31;100.00;95852.47;5084187;28;24476;-75
2022/02/02 07:18:12;;;;;;;12.93;4.35;;;;;;;4.29;100.00;95852.50;5071471;28;24415;-74
2022/02/02 07:20:50;;;;;;;20.63;4.70;;;;;;;4.36;100.00;95861.63;5071655;28;24433;-75
2022/02/02 07:23:32;;;;;;;14.32;5.28;;;;;;;4.46;100.00;95864.72;5071177;28;24488;-74
2022/02/02 07:28:54;;;;;;;17.17;5.15;;;;;;;4.54;100.00;95865.25;5063240;28;24434;-75
2022/02/02 07:31:35;;;;;;;16.10;4.95;;;;;;;4.52;100.00;95861.06;5070535;28;24489;-74
2022/02/02 07:34:07;;;;;;;16.17;4.75;;;;;;;4.53;100.00;95865.31;5079800;28;24709;-74
2022/02/02 07:36:39;;;;;;;16.60;4.72;;;;;;;4.57;100.00;95870.28;5089680;28;24429;-75
2022/02/02 07:39:10;;;;;;;15.15;4.70;;;;;;;4.58;100.00;95866.81;5071285;28;24551;-74
2022/02/02 07:41:39;;;;;;;15.98;4.32;;;;;;;4.62;100.00;95880.34;5070885;28;24496;-76
2022/02/02 07:44:12;;;;;;;16.15;5.10;;;;;;;4.60;100.00;95877.84;5071542;28;24426;-75
2022/02/02 07:46:43;;;;;;;15.18;4.45;;;;;;;4.72;100.00;95875.72;5067607;28;24435;-74
2022/02/02 07:49:12;;;;;;;15.90;4.38;;;;;;;4.51;100.00;95891.00;5071062;28;24446;-75
2022/02/02 07:51:41;;;;;;;12.10;4.18;;;;;;;4.33;100.00;95887.38;5070335;28;24431;-75
2022/02/02 07:54:16;;;;;;;17.05;3.55;;;;;;;4.14;100.00;95899.19;5082261;28;24480;-76
2022/02/02 07:56:46;;;;;;;10.20;2.85;;;;;;;3.97;100.00;95887.00;5090577;28;24425;-76
2022/02/02 07:59:21;;;;;;;6.75;2.58;;;;;;;3.91;100.00;95865.88;5088959;28;24418;-76
2022/02/02 08:01:49;;;;;;;9.45;3.13;;;;;;;3.86;100.00;95874.56;5080401;28;24492;-76
2022/02/02 08:04:19;;;;;;;18.13;3.40;;;;;;;3.85;100.00;95870.28;5091155;28;24413;-75
2022/02/02 08:06:52;;;;;;;8.23;3.20;;;;;;;3.87;100.00;95872.81;5091359;28;24461;-75
2022/02/02 08:09:27;;;;;;;7.57;3.35;;;;;;;3.93;100.00;95880.31;5084075;28;24538;-74
2022/02/02 08:11:55;;;;;;;12.50;4.45;;;;;;;4.05;100.00;95895.25;5070893;28;24426;-75
2022/02/02 08:14:23;;;;;;;12.85;4.07;;;;;;;4.13;100.00;95888.09;5133334;22;25056;-74
2022/02/02 08:16:49;;;;;;;17.23;4.85;;;;;;;4.26;100.00;95900.47;5129167;28;24439;-75
2022/02/02 08:19:17;;;;;;;12.60;4.57;;;;;;;4.25;100.00;95893.69;5134106;28;24502;-73
2022/02/02 08:21:44;;;;;;;16.73;5.07;;;;;;;4.29;100.00;95901.22;5135786;28;24533;-75
2022/02/02 08:24:13;;;;;;;16.70;4.65;;;;;;;4.40;100.00;95915.38;5099737;28;24998;-75
2022/02/02 08:26:39;;;;;;;15.63;4.90;;;;;;;4.38;100.00;95909.50;5110461;28;24429;-71
2022/02/02 08:29:08;;;;;;;18.70;5.53;;;;;;;4.46;100.00;95905.75;5110868;28;24661;-74
2022/02/02 08:31:36;;;;;;;17.60;4.88;;;;;;;4.52;100.00;95912.34;5098821;28;24528;-75
2022/02/02 08:34:08;;;;;;;14.15;4.60;;;;;;;4.53;100.00;95927.72;5110566;28;24437;-74
2022/02/02 08:36:35;;;;;;;17.42;5.32;;;;;;;4.52;100.00;95928.56;5106788;28;24561;-74
2022/02/02 08:39:13;;;;;;;12.53;4.63;;;;;;;4.51;100.00;95928.66;5092280;28;24470;-76
2022/02/02 08:41:46;;;;;;;20.37;5.70;;;;;;;4.59;100.00;95931.75;5092710;28;24898;-73
2022/02/02 08:44:18;;;;;;;16.75;5.10;;;;;;;4.60;100.00;95930.88;5110632;28;24786;-74
2022/02/02 08:46:52;;;;;;;21.25;5.50;;;;;;;4.70;100.00;95945.03;5095079;28;24441;-73
2022/02/02 08:49:18;;;;;;;23.02;5.47;;;;;;;4.65;100.00;95930.72;5134644;28;24425;-74
2022/02/02 08:51:47;;;;;;;21.70;5.53;;;;;;;4.68;100.00;95930.59;5134310;28;24576;-75
2022/02/02 08:54:22;;;;;;;20.50;5.63;;;;;;;4.72;100.00;95924.47;5135557;28;24779;-75
2022/02/02 08:59:42;;;;;;;17.75;5.38;;;;;;;4.70;100.00;95937.34;5116780;28;24430;-74
2022/02/02 09:02:13;;;;;;;15.50;5.00;;;;;;;4.78;100.00;95942.19;5095726;28;24434;-73
2022/02/02 09:07:23;;;;;;;18.67;4.88;;;;;;;4.75;100.00;95944.88;5103204;28;24445;-76
2022/02/02 09:09:57;;;;;;;18.77;5.38;;;;;;;4.80;100.00;95943.81;5092759;28;24446;-76
2022/02/02 09:23:28;;;;;;;17.15;5.50;;;;;;;4.84;100.00;95965.06;5106508;28;24461;-75
2022/02/02 09:26:04;;;;;;;17.38;4.60;;;;;;;4.87;100.00;95964.13;5092820;28;24449;-75
2022/02/02 09:31:29;;;;;;;15.88;5.00;;;;;;;4.88;100.00;95976.03;5103773;28;24472;-76
2022/02/02 09:34:01;;;;;;;16.17;4.65;;;;;;;4.88;100.00;95981.19;5113447;28;24459;-76
2022/02/02 09:36:30;;;;;;;16.00;4.78;;;;;;;4.95;100.00;95991.16;5113114;28;24460;-74
2022/02/02 09:39:00;;;;;;;15.10;4.43;;;;;;;4.98;100.00;95992.78;5108147;28;24826;-74
2022/02/02 09:41:38;;;;;;;17.20;5.18;;;;;;;4.95;100.00;96000.59;5092589;28;24525;-74
2022/02/02 09:44:08;;;;;;;21.75;5.38;;;;;;;4.90;100.00;95998.19;5092730;28;24495;-75
2022/02/02 09:46:39;;;;;;;14.98;5.22;;;;;;;4.98;100.00;96005.63;5091938;28;25065;-76
2022/02/02 09:49:11;;;;;;;20.63;5.75;;;;;;;4.93;100.00;96010.06;5092869;28;24476;-75
2022/02/02 09:51:43;;;;;;;16.97;4.80;;;;;;;4.97;100.00;95999.66;5097067;28;24442;-75
2022/02/02 09:54:14;;;;;;;19.20;5.23;;;;;;;5.03;100.00;96024.25;5095764;28;24461;-76
2022/02/02 09:57:26;;;;;;;22.35;5.10;;;;;;;5.04;100.00;96031.03;5092614;28;24445;-74
2022/02/02 09:59:58;;;;;;;19.45;5.30;;;;;;;5.07;100.00;96031.75;5091614;28;24989;-75
2022/02/02 10:02:47;;;;;;;19.55;5.00;;;;;;;5.06;100.00;96030.09;5093527;28;24549;-75
2022/02/02 10:05:25;;;;;;;20.85;4.97;;;;;;;5.14;100.00;96054.66;5092624;28;24533;-75
2022/02/02 10:08:09;;;;;;;17.67;4.90;;;;;;;5.14;100.00;96064.94;5103836;28;24893;-75
2022/02/02 10:10:53;;;;;;;16.95;5.10;;;;;;;5.06;100.00;96054.94;5092751;28;24445;-74
2022/02/02 10:13:24;;;;;;;13.87;5.00;;;;;;;5.06;100.00;96057.50;5092516;28;24524;-76
2022/02/02 10:15:53;;;;;;;19.80;5.17;;;;;;;5.05;100.00;96059.25;5092022;28;24440;-75
2022/02/02 10:18:29;;;;;;;18.35;5.45;;;;;;;5.05;100.00;96072.06;5092630;28;24430;-76
2022/02/02 10:20:55;;;;;;;14.63;5.07;;;;;;;5.08;100.00;96078.84;5092339;28;24450;-75
2022/02/02 10:23:24;;;;;;;23.80;5.68;;;;;;;5.14;100.00;96086.31;5092158;28;24871;-76
2022/02/02 10:25:57;;;;;;;14.45;5.25;;;;;;;5.16;100.00;96078.56;5091814;28;25010;-76
2022/02/02 10:28:25;;;;;;;13.40;4.80;;;;;;;5.19;100.00;96086.13;5091585;28;24609;-75
2022/02/02 10:30:55;;;;;;;20.88;5.20;;;;;;;5.21;100.00;96074.91;5093368;28;25093;-74
2022/02/02 10:33:24;;;;;;;16.80;5.25;;;;;;;5.21;100.00;96074.91;5091647;28;24983;-75
2022/02/02 10:35:53;;;;;;;19.02;5.55;;;;;;;5.27;100.00;96081.56;5092077;28;24468;-75
2022/02/02 10:38:24;;;;;;;23.58;5.50;;;;;;;5.25;100.00;96084.19;5091887;28;24818;-75
2022/02/02 10:40:55;;;;;;;18.13;4.97;;;;;;;5.31;100.00;96083.97;5091557;28;24428;-75
2022/02/02 10:43:31;;;;;;;16.00;5.38;;;;;;;5.34;100.00;96088.16;5091721;28;24471;-76
2022/02/02 10:46:07;;;;;;;22.17;5.32;;;;;;;5.36;100.00;96090.66;5091404;28;24487;-74
2022/02/02 10:48:38;;;;;;;20.95;5.53;;;;;;;5.41;100.00;96076.72;5091643;28;24419;-75
2022/02/02 10:51:12;;;;;;;19.90;5.47;;;;;;;5.45;100.00;96075.75;5091524;28;24472;-75
2022/02/02 10:53:49;;;;;;;17.35;4.72;;;;;;;5.48;100.00;96083.31;5091028;28;24859;-76
2022/02/02 10:59:14;;;;;;;15.73;4.82;;;;;;;5.49;100.00;96072.16;5104451;28;24441;-76
2022/02/02 11:01:48;;;;;;;17.52;4.88;;;;;;;5.45;100.00;96072.31;5096098;28;24495;-75
2022/02/02 11:07:00;;;;;;;26.63;5.00;;;;;;;5.54;100.00;96071.97;5090949;28;24507;-76
2022/02/02 11:09:29;;;;;;;18.63;5.32;;;;;;;5.50;100.00;96075.56;5090370;28;24966;-77
2022/02/02 11:11:57;;;;;;;19.00;5.38;;;;;;;5.47;100.00;96078.25;5091009;28;24453;-77
2022/02/02 11:14:34;;;;;;;18.60;5.90;;;;;;;5.43;100.00;96094.66;5090751;28;24998;-76
2022/02/02 11:17:08;;;;;;;20.63;6.00;;;;;;;5.44;100.00;96084.31;5089927;28;24465;-76
2022/02/02 11:19:38;;;;;;;17.15;5.32;;;;;;;5.44;100.00;96074.06;5090524;28;24425;-76
2022/02/02 11:22:32;;;;;;;16.92;5.40;;;;;;;5.41;100.00;96061.31;5090926;28;24430;-76
2022/02/02 11:25:21;;;;;;;17.17;5.32;;;;;;;5.43;100.00;96056.97;5090776;28;24430;-76
2022/02/02 11:27:50;;;;;;;22.50;6.23;;;;;;;5.34;100.00;96054.78;5090278;28;24612;-76
2022/02/02 11:30:40;;;;;;;20.65;5.00;;;;;;;5.50;100.00;96049.88;5092925;28;24544;-78
2022/02/02 11:33:22;;;;;;;15.60;5.28;;;;;;;5.74;100.00;96058.34;5090435;28;24487;-75
2022/02/02 11:35:50;;;;;;;20.60;5.73;;;;;;;5.77;100.00;96056.50;5090066;28;25041;-76
2022/02/02 11:38:34;;;;;;;17.70;5.38;;;;;;;5.89;100.00;96073.16;5090163;28;24513;-76
2022/02/02 11:41:36;;;;;;;21.00;5.50;;;;;;;5.93;100.00;96081.63;5090739;28;24436;-77
2022/02/02 11:44:09;;;;;;;14.68;4.80;;;;;;;5.78;100.00;96075.31;5090137;28;24419;-76
2022/02/02 11:46:41;;;;;;;14.88;4.20;;;;;;;5.83;100.00;96074.25;5089825;28;24796;-74
2022/02/02 11:49:15;;;;;;;14.30;4.70;;;;;;;5.77;100.00;96089.91;5090625;28;24418;-77
2022/02/02 11:51:43;;;;;;;16.50;5.18;;;;;;;5.79;100.00;96080.44;5090529;28;24804;-77
2022/02/02 11:54:11;;;;;;;14.07;4.60;;;;;;;5.70;100.00;96069.66;5089907;28;24970;-77
2022/02/02 11:59:58;;;;;;;15.85;4.82;;;;;;;5.77;100.00;96081.38;5089461;28;24529;-77
2022/02/02 12:02:38;;;;;;;14.07;4.57;;;;;;;5.73;100.00;96074.69;5086881;28;24901;-77
2022/02/02 12:05:14;;;;;;;15.68;4.95;;;;;;;5.70;100.00;96074.78;5090537;28;24421;-76
2022/02/02 12:08:01;;;;;;;13.65;4.20;;;;;;;5.41;100.00;96088.75;5090577;28;24422;-77
2022/02/02 12:10:57;;;;;;;14.95;4.38;;;;;;;5.27;100.00;96087.53;5110583;28;24912;-76
2022/02/02 12:19:47;;;;;;;15.48;4.38;;;;;;;5.45;100.00;96095.44;5110685;28;24393;-76
2022/02/02 12:28:08;;;;;;;20.65;4.43;;;;;;;5.50;100.00;96106.41;5110150;28;24448;-77
2022/02/02 12:47:43;;;;;;;15.65;4.18;;;;;;;5.50;100.00;96098.69;5072898;28;24442;-75
2022/02/02 12:50:29;;;;;;;18.08;4.35;;;;;;;5.46;100.00;96105.66;5073592;28;24883;-76
2022/02/02 12:56:17;;;;;;;17.45;4.57;;;;;;;5.57;100.00;96100.97;5093651;28;24480;-76
2022/02/02 12:58:48;;;;;;;12.15;4.43;;;;;;;5.56;100.00;96101.00;5093320;28;25042;-76
2022/02/02 13:01:19;;;;;;;12.63;4.32;;;;;;;5.56;100.00;96088.16;5092877;28;24445;-76
2022/02/02 13:03:46;;;;;;;14.10;4.88;;;;;;;5.58;100.00;96091.53;5093340;28;24422;-76
2022/02/02 13:06:15;;;;;;;15.82;4.63;;;;;;;5.62;100.00;96092.25;5093392;28;24429;-79
2022/02/02 13:08:42;;;;;;;14.65;5.07;;;;;;;5.59;100.00;96096.59;5093407;28;24521;-77
2022/02/02 13:11:10;;;;;;;13.65;4.45;;;;;;;5.60;100.00;96107.72;5092725;28;25193;-76
2022/02/02 13:13:36;;;;;;;10.77;3.90;;;;;;;5.58;100.00;96106.94;5092744;28;24429;-77
2022/02/02 13:16:11;;;;;;;13.10;3.88;;;;;;;5.50;100.00;96107.22;5104826;28;24462;-77
2022/02/02 13:18:40;;;;;;;10.02;3.47;;;;;;;5.50;100.00;96114.94;5113688;28;24418;-77
2022/02/02 13:21:13;;;;;;;14.63;4.53;;;;;;;5.51;100.00;96115.78;5113633;28;24510;-78
2022/02/02 13:23:57;;;;;;;12.88;3.78;;;;;;;5.56;100.00;96130.13;5112838;28;24443;-77
2022/02/02 13:26:31;;;;;;;11.77;3.60;;;;;;;5.59;100.00;96130.00;5113114;28;24618;-77
2022/02/02 13:29:03;;;;;;;12.05;4.32;;;;;;;5.68;100.00;96139.09;5113221;28;24984;-77
2022/02/02 13:31:51;;;;;;;13.43;3.85;;;;;;;5.69;100.00;96137.38;5110326;28;24453;-76
2022/02/02 13:34:26;;;;;;;9.00;3.47;;;;;;;5.65;100.00;96149.50;5113064;28;24430;-76
2022/02/02 13:37:07;;;;;;;15.10;4.18;;;;;;;5.69;100.00;96155.34;5113031;28;24553;-77
2022/02/02 13:42:47;;;;;;;12.57;4.22;;;;;;;5.68;100.00;96154.53;5092384;28;24389;-76
2022/02/02 13:51:13;;;;;;;12.15;4.22;;;;;;;5.57;100.00;96170.34;5066032;28;24487;-77
2022/02/02 13:59:26;;;;;;;8.90;3.15;;;;;;;5.45;100.00;96182.78;5113230;28;24767;-76
2022/02/02 14:02:07;;;;;;;9.77;3.60;;;;;;;5.43;100.00;96171.72;5095670;28;24438;-77
2022/02/02 14:04:46;;;;;;;9.45;3.30;;;;;;;5.38;100.00;96184.75;5092120;28;24464;-75
2022/02/02 14:07:23;;;;;;;13.35;3.60;;;;;;;5.30;100.00;96184.16;5092094;28;24425;-75
2022/02/02 14:10:07;;;;;;;14.50;3.40;;;;;;;5.28;100.00;96191.09;5109393;28;24479;-76
2022/02/02 14:31:45;;;;;;;8.23;2.20;;;;;;;5.18;100.00;96228.25;5095869;28;24514;-77
2022/02/02 14:34:12;;;;;;;7.38;2.70;;;;;;;5.19;100.00;96233.34;5091562;28;24430;-77
2022/02/02 14:36:40;;;;;;;6.83;3.47;;;;;;;5.22;100.00;96232.38;5091361;28;24774;-76
2022/02/02 14:39:14;;;;;;;6.38;2.05;;;;;;;5.19;100.00;96229.91;5091139;28;24431;-77
2022/02/02 14:41:45;;;;;;;5.22;2.50;;;;;;;5.13;100.00;96230.16;5094985;28;24958;-76
2022/02/02 14:44:16;;;;;;;8.32;4.43;;;;;;;5.15;100.00;96236.88;5091701;28;24570;-77
2022/02/02 14:46:51;;;;;;;10.98;6.22;;;;;;;5.18;100.00;96233.38;5108456;28;24445;-76
2022/02/02 14:49:22;;;;;;;5.32;3.50;;;;;;;5.19;100.00;96246.19;5109879;28;24461;-77
2022/02/02 14:52:01;;;;;;;4.18;1.95;;;;;;;5.20;100.00;96239.31;5095325;28;22266;-77
2022/02/02 14:54:48;;;;;;;5.57;2.70;;;;;;;5.20;100.00;96240.16;5090444;28;24487;-77
2022/02/02 15:06:11;;;;;;;5.57;2.95;;;;;;;5.22;100.00;96243.50;5109201;28;24429;-75
2022/02/02 15:09:08;;;;;;;4.75;2.63;;;;;;;5.31;100.00;96234.66;5110688;28;24414;-77
2022/02/02 15:26:39;;;;;;;7.67;3.90;;;;;;;5.30;100.00;96256.06;5091038;28;24409;-74
2022/02/02 15:28:30;;;;;;;7.68;3.58;;;;;;;5.30;100.00;96261.19;5090607;28;24420;-74
2022/02/02 15:31:00;;;;;;;5.85;3.60;;;;;;;5.29;100.00;96268.06;5081362;28;24438;-74
2022/02/02 15:33:29;;;;;;;6.03;2.78;;;;;;;5.26;100.00;96273.31;5082989;28;24442;-74
2022/02/02 15:36:12;;;;;;;8.98;4.68;;;;;;;5.24;100.00;96272.53;5091169;28;24482;-74
2022/02/02 15:38:39;;;;;;;5.82;2.55;;;;;;;5.24;100.00;96277.69;5091502;28;24501;-74
2022/02/02 15:41:14;;;;;;;4.00;1.97;;;;;;;5.22;100.00;96283.75;5100806;28;24593;-76
2022/02/02 15:43:50;;;;;;;3.57;2.00;;;;;;;5.20;100.00;96280.41;5111927;28;24509;-77
2022/02/02 15:54:55;;;;;;;2.90;1.40;;;;;;;5.17;100.00;96271.06;5070666;28;24469;-75
2022/02/02 16:03:05;;;;;;;3.75;2.47;;;;;;;5.16;100.00;96266.00;5059673;28;24484;-76
2022/02/02 16:05:40;;;;;;;7.78;4.15;;;;;;;5.14;100.00;96281.44;5090257;28;24426;-76
2022/02/02 16:08:10;;;;;;;6.15;4.13;;;;;;;5.16;100.00;96281.41;5094214;28;24437;-75
2022/02/02 16:13:36;;;;;;;5.13;3.50;;;;;;;5.12;100.00;96287.50;5092843;28;24787;-75
2022/02/02 16:16:13;;;;;;;20.65;8.32;;;;;;;5.10;100.00;96283.25;5093890;28;24488;-75
2022/02/02 16:18:45;;;;;;;3.67;2.13;;;;;;;5.04;100.00;96275.78;5094252;28;24429;-75
2022/02/02 16:35:07;;;;;;;10.68;3.08;;;;;;;5.11;100.00;96296.94;5069152;28;24418;-75
2022/02/02 16:37:36;;;;;;;3.60;2.58;;;;;;;5.13;100.00;96299.47;5114151;28;24418;-75
2022/02/02 16:40:07;;;;;;;4.88;2.97;;;;;;;5.11;100.00;96291.81;5113568;28;24429;-75
2022/02/02 16:45:18;;;;;;;6.67;3.10;;;;;;;5.09;100.00;96296.16;5108146;28;24584;-75
2022/02/02 16:47:45;;;;;;;3.10;1.88;;;;;;;5.08;100.00;96297.91;5093600;28;24791;-76
2022/02/02 16:50:16;;;;;;;5.72;3.88;;;;;;;5.04;100.00;96310.84;5093742;28;24425;-76
2022/02/02 16:52:45;;;;;;;3.40;2.10;;;;;;;5.03;100.00;96311.75;5093513;28;24481;-75
2022/02/02 16:55:19;;;;;;;2.92;1.70;;;;;;;5.03;100.00;96306.63;5093027;28;24461;-76
2022/02/02 16:57:54;;;;;;;3.30;2.08;;;;;;;5.12;100.00;96305.47;5106258;28;25051;-76
2022/02/02 17:26:04;;;;;;;13.00;9.02;;;;;;;5.13;100.00;96330.28;5088502;28;24512;-77